createdAt,value
2019-04-21T00:01:54.555Z,54.00
2019-04-21T00:04:56.876Z,54.10
2019-04-21T00:07:54.303Z,54.30
2019-04-21T00:10:50.008Z,54.40
2019-04-21T00:13:27.954Z,54.40
2019-04-21T00:15:53.762Z,54.60
2019-04-21T00:19:12.164Z,54.60
2019-04-21T00:22:11.416Z,54.70
2019-04-21T00:25:01.104Z,54.90
2019-04-21T00:27:51.401Z,55.00
2019-04-21T00:30:50.844Z,54.80
2019-04-21T00:33:25.858Z,54.80
2019-04-21T00:36:15.981Z,55.20
2019-04-21T00:39:29.014Z,55.60
2019-04-21T00:42:09.901Z,55.70
2019-04-21T00:44:59.175Z,55.90
2019-04-21T00:47:52.858Z,55.90
2019-04-21T00:50:51.025Z,55.90
2019-04-21T00:53:44.122Z,55.80
2019-04-21T00:56:34.168Z,56.00
2019-04-21T00:59:25.641Z,56.30
2019-04-21T01:02:12.738Z,56.40
2019-04-21T01:05:04.852Z,56.50
2019-04-21T01:07:52.473Z,56.30
2019-04-21T01:10:35.455Z,56.50
2019-04-21T01:13:44.042Z,56.50
2019-04-21T01:16:06.912Z,56.50
2019-04-21T01:18:54.837Z,56.50
2019-04-21T01:21:27.944Z,56.20
2019-04-21T01:24:21.943Z,56.30
2019-04-21T01:27:18.587Z,56.50
2019-04-21T01:30:16.474Z,56.60
2019-04-21T01:33:17.366Z,56.70
2019-04-21T01:35:58.397Z,56.60
2019-04-21T01:38:58.393Z,56.70
2019-04-21T01:41:49.475Z,56.80
2019-04-21T01:44:36.173Z,56.80
2019-04-21T01:47:17.583Z,57.20
2019-04-21T01:49:59.531Z,56.90
2019-04-21T01:53:15.546Z,56.80
2019-04-21T01:56:11.869Z,56.70
2019-04-21T01:58:53.822Z,57.00
2019-04-21T02:02:01.731Z,56.70
2019-04-21T02:04:48.477Z,56.80
2019-04-21T02:07:42.981Z,57.00
2019-04-21T02:10:35.339Z,57.20
2019-04-21T02:13:17.640Z,57.50
2019-04-21T02:16:11.253Z,57.30
2019-04-21T02:18:54.419Z,57.30
2019-04-21T02:21:43.595Z,57.20
2019-04-21T02:27:29.576Z,57.60
2019-04-21T02:30:35.531Z,58.00
2019-04-21T02:39:16.432Z,58.50
2019-04-21T02:41:54.618Z,58.70
2019-04-21T02:45:03.811Z,59.00
2019-04-21T02:50:28.796Z,59.40
2019-04-21T02:53:21.196Z,59.80
2019-04-21T02:56:07.835Z,59.90
2019-04-21T03:02:17.048Z,60.70
2019-04-21T03:05:21.299Z,60.80
2019-04-21T03:08:03.522Z,61.10
2019-04-21T03:10:52.945Z,61.40
2019-04-21T03:16:32.994Z,61.50
2019-04-21T03:19:33.179Z,61.70
2019-04-21T03:22:12.911Z,61.90
2019-04-21T03:27:57.309Z,62.40
2019-04-21T03:39:11.345Z,63.70
2019-04-21T03:42:08.750Z,64.10
2019-04-21T03:53:25.094Z,65.20
2019-04-21T03:56:16.062Z,65.50
2019-04-21T04:03:13.745Z,66.10
2019-04-21T04:05:29.812Z,66.30
2019-04-21T04:08:08.976Z,66.50
2019-04-21T04:11:06.800Z,67.50
2019-04-21T04:14:03.803Z,67.30
2019-04-21T04:16:25.367Z,67.50
2019-04-21T04:19:14.635Z,67.90
2019-04-21T04:22:14.606Z,68.10
2019-04-21T04:27:59.933Z,69.00
2019-04-21T04:36:33.905Z,69.80
2019-04-21T04:42:39.288Z,69.80
2019-04-21T04:45:25.739Z,70.10
2019-04-21T04:48:11.807Z,70.40
2019-04-21T04:51:01.986Z,70.30
2019-04-21T04:53:47.449Z,70.50
2019-04-21T04:56:54.110Z,70.60
2019-04-21T05:02:27.783Z,70.70
2019-04-21T05:05:19.531Z,71.30
2019-04-21T05:08:16.576Z,71.90
2019-04-21T05:11:07.207Z,72.10
2019-04-21T05:13:51.141Z,72.60
2019-04-21T05:19:21.152Z,73.00
2019-04-21T05:22:20.042Z,72.90
2019-04-21T05:24:56.582Z,72.80
2019-04-21T05:27:42.845Z,73.40
2019-04-21T05:30:55.146Z,73.90
2019-04-21T05:33:54.696Z,74.40
2019-04-21T05:37:01.376Z,74.90
2019-04-21T05:39:57.801Z,74.90
2019-04-21T05:42:48.573Z,75.50
2019-04-21T05:45:46.167Z,75.60
2019-04-21T05:48:39.173Z,76.40
2019-04-21T05:51:25.570Z,76.60
2019-04-21T05:54:36.583Z,76.70
2019-04-21T05:57:10.173Z,76.90
2019-04-21T06:00:01.191Z,77.40
2019-04-21T06:02:59.422Z,77.20
2019-04-21T06:05:58.436Z,77.30
2019-04-21T06:08:38.692Z,77.60
2019-04-21T06:11:25.883Z,78.10
2019-04-21T06:14:16.852Z,78.50
2019-04-21T06:17:08.133Z,78.60
2019-04-21T06:19:43.220Z,78.60
2019-04-21T06:22:23.894Z,78.70
2019-04-21T06:25:41.562Z,78.50
2019-04-21T06:28:17.849Z,78.40
2019-04-21T06:33:50.472Z,79.10
2019-04-21T06:37:04.305Z,79.40
2019-04-21T06:40:03.168Z,79.40
2019-04-21T06:42:41.581Z,79.70
2019-04-21T06:45:34.870Z,79.70
2019-04-21T06:48:25.898Z,79.70
2019-04-21T06:51:15.115Z,79.40
2019-04-21T06:54:06.572Z,79.20
2019-04-21T06:57:00.923Z,78.20
2019-04-21T06:59:38.450Z,78.80
2019-04-21T07:05:31.069Z,78.50
2019-04-21T07:11:05.429Z,78.40
2019-04-21T07:14:13.410Z,78.40
2019-04-21T07:16:33.423Z,79.00
2019-04-21T07:19:25.726Z,79.00
2019-04-21T07:22:12.595Z,79.40
2019-04-21T07:25:00.340Z,79.50
2019-04-21T07:27:46.861Z,79.20
2019-04-21T07:30:59.398Z,75.50
2019-04-21T07:33:49.341Z,75.60
2019-04-21T07:36:35.365Z,75.30
2019-04-21T07:39:05.931Z,74.70
2019-04-21T07:41:53.969Z,75.00
2019-04-21T07:44:45.980Z,75.20
2019-04-21T07:47:50.703Z,74.40
2019-04-21T07:50:58.059Z,74.70
2019-04-21T07:56:34.840Z,72.50
2019-04-21T07:59:50.287Z,72.00
2019-04-21T08:02:23.383Z,72.40
2019-04-21T08:07:58.004Z,71.40
2019-04-21T08:10:52.249Z,70.40
2019-04-21T08:13:48.810Z,70.90
2019-04-21T08:19:13.029Z,70.80
2019-04-21T08:22:08.258Z,69.80
2019-04-21T08:24:50.081Z,69.50
2019-04-21T08:27:47.776Z,68.50
2019-04-21T08:30:42.473Z,68.20
2019-04-21T08:33:31.943Z,68.40
2019-04-21T08:39:06.826Z,66.30
2019-04-21T08:41:55.972Z,65.40
2019-04-21T08:44:46.888Z,64.50
2019-04-21T08:47:39.740Z,65.30
2019-04-21T08:50:27.954Z,65.80
2019-04-21T08:53:15.605Z,64.80
2019-04-21T08:56:27.759Z,64.00
2019-04-21T09:00:01.625Z,63.50
2019-04-21T09:02:57.461Z,65.10
2019-04-21T09:05:52.637Z,63.50
2019-04-21T09:08:44.416Z,63.50
2019-04-21T09:11:24.757Z,62.30
2019-04-21T09:14:20.776Z,60.20
2019-04-21T09:16:47.278Z,59.50
2019-04-21T09:19:51.519Z,60.40
2019-04-21T09:22:30.744Z,62.10
2019-04-21T09:25:30.826Z,59.70
2019-04-21T09:28:15.678Z,59.90
2019-04-21T09:30:50.608Z,59.60
2019-04-21T09:33:42.482Z,60.00
2019-04-21T09:36:41.236Z,60.90
2019-04-21T09:39:25.553Z,62.00
2019-04-21T09:42:13.469Z,60.40
2019-04-21T09:45:04.900Z,61.20
2019-04-21T09:47:40.131Z,58.60
2019-04-21T09:50:24.585Z,58.50
2019-04-21T09:53:22.654Z,58.60
2019-04-21T09:56:08.633Z,59.50
2019-04-21T09:58:40.766Z,58.20
2019-04-21T10:01:36.784Z,58.40
2019-04-21T10:04:18.711Z,57.60
2019-04-21T10:07:07.359Z,57.30
2019-04-21T10:09:56.206Z,58.00
2019-04-21T10:12:45.777Z,58.10
2019-04-21T10:15:35.550Z,57.10
2019-04-21T10:18:25.383Z,57.50
2019-04-21T10:21:15.459Z,56.10
2019-04-21T10:24:04.533Z,56.70
2019-04-21T10:26:53.698Z,56.60
2019-04-21T10:29:44.850Z,56.00
2019-04-21T10:32:32.762Z,56.80
2019-04-21T10:35:23.073Z,55.50
2019-04-21T10:38:22.711Z,56.50
2019-04-21T10:41:03.549Z,56.60
2019-04-21T10:43:53.352Z,57.10
2019-04-21T10:46:24.602Z,56.40
2019-04-21T10:49:14.798Z,55.90
2019-04-21T10:52:06.763Z,56.50
2019-04-21T10:55:12.776Z,56.60
2019-04-21T10:57:32.576Z,55.90
2019-04-21T11:00:22.021Z,56.40
2019-04-21T11:03:29.124Z,53.00
2019-04-21T11:06:08.636Z,51.90
2019-04-21T11:08:45.716Z,53.90
2019-04-21T11:11:16.226Z,51.90
2019-04-21T11:13:46.510Z,50.80
2019-04-21T11:16:26.926Z,52.10
2019-04-21T11:19:16.181Z,51.20
2019-04-21T11:22:05.602Z,51.40
2019-04-21T11:24:54.799Z,50.80
2019-04-21T11:27:44.916Z,52.00
2019-04-21T11:30:34.286Z,50.60
2019-04-21T11:33:15.255Z,51.00
2019-04-21T11:36:03.992Z,50.50
2019-04-21T11:39:26.917Z,47.00
2019-04-21T11:42:17.551Z,47.00
2019-04-21T11:45:08.337Z,46.30
2019-04-21T11:48:12.567Z,49.20
2019-04-21T11:51:01.333Z,47.00
2019-04-21T11:53:32.875Z,48.10
2019-04-21T11:56:23.151Z,47.60
2019-04-21T11:59:12.166Z,48.10
2019-04-21T12:02:03.534Z,47.50
2019-04-21T12:04:52.119Z,48.00
2019-04-21T12:07:41.478Z,44.10
2019-04-21T12:10:31.489Z,43.60
2019-04-21T12:13:22.435Z,44.10
2019-04-21T12:16:12.855Z,44.30
2019-04-21T12:19:03.022Z,43.70
2019-04-21T12:22:02.432Z,42.20
2019-04-21T12:24:43.218Z,42.30
2019-04-21T12:27:33.874Z,42.10
2019-04-21T12:30:24.041Z,42.30
2019-04-21T12:33:20.495Z,43.00
2019-04-21T12:35:55.595Z,43.00
2019-04-21T12:38:50.854Z,43.10
2019-04-21T12:41:36.310Z,45.30
2019-04-21T12:44:06.878Z,46.00
2019-04-21T12:46:56.109Z,44.70
2019-04-21T12:49:45.578Z,42.40
2019-04-21T12:52:18.207Z,42.40
2019-04-21T12:54:48.552Z,42.60
2019-04-21T12:57:37.650Z,42.80
2019-04-21T13:00:27.060Z,44.30
2019-04-21T13:03:17.442Z,43.90
2019-04-21T13:06:07.599Z,43.20
2019-04-21T13:09:03.396Z,45.50
2019-04-21T13:11:47.330Z,43.50
2019-04-21T13:14:17.910Z,42.20
2019-04-21T13:17:07.654Z,41.40
2019-04-21T13:19:56.989Z,41.50
2019-04-21T13:22:46.332Z,42.30
2019-04-21T13:25:36.440Z,42.10
2019-04-21T13:28:25.788Z,41.50
2019-04-21T13:31:16.059Z,41.90
2019-04-21T13:34:06.149Z,42.50
2019-04-21T13:36:57.370Z,43.30
2019-04-21T13:40:23.166Z,44.00
2019-04-21T13:42:55.030Z,42.90
2019-04-21T13:45:27.805Z,43.30
2019-04-21T13:48:18.801Z,42.90
2019-04-21T13:51:09.018Z,42.50
2019-04-21T13:53:59.455Z,42.50
2019-04-21T13:56:50.297Z,41.30
2019-04-21T13:59:40.344Z,41.50
2019-04-21T14:02:29.246Z,43.00
2019-04-21T14:05:20.210Z,42.80
2019-04-21T14:08:09.406Z,43.70
2019-04-21T14:10:59.771Z,43.50
2019-04-21T14:13:50.392Z,43.30
2019-04-21T14:16:40.121Z,42.40
2019-04-21T14:19:29.216Z,42.60
2019-04-21T14:22:20.266Z,43.30
2019-04-21T14:25:10.397Z,42.50
2019-04-21T14:27:59.823Z,43.20
2019-04-21T14:30:50.512Z,43.40
2019-04-21T14:33:40.369Z,41.60
2019-04-21T14:36:30.728Z,41.10
2019-04-21T14:39:20.799Z,41.50
2019-04-21T14:42:10.262Z,42.60
2019-04-21T14:44:40.872Z,42.40
2019-04-21T14:47:52.531Z,41.60
2019-04-21T14:50:54.589Z,41.70
2019-04-21T14:54:18.567Z,41.90
2019-04-21T14:57:07.389Z,41.70
2019-04-21T14:59:57.325Z,41.20
2019-04-21T15:02:47.651Z,41.30
2019-04-21T15:05:37.614Z,41.40
2019-04-21T15:08:27.139Z,41.80
2019-04-21T15:11:16.171Z,42.40
2019-04-21T15:14:06.100Z,43.20
2019-04-21T15:16:54.980Z,42.30
2019-04-21T15:19:50.978Z,42.60
2019-04-21T15:22:34.884Z,42.20
2019-04-21T15:25:05.863Z,41.90
2019-04-21T15:27:56.883Z,41.90
2019-04-21T15:30:46.951Z,42.30
2019-04-21T15:33:36.967Z,42.20
2019-04-21T15:36:27.116Z,42.70
2019-04-21T15:38:58.009Z,43.10
2019-04-21T15:41:28.133Z,42.90
2019-04-21T15:44:18.581Z,42.70
2019-04-21T15:47:08.174Z,42.40
2019-04-21T15:50:04.625Z,42.80
2019-04-21T15:52:47.957Z,42.80
2019-04-21T15:55:43.236Z,43.30
2019-04-21T15:58:52.572Z,44.00
2019-04-21T16:01:56.725Z,43.30
2019-04-21T16:04:46.507Z,42.40
2019-04-21T16:07:36.194Z,42.40
2019-04-21T16:10:34.641Z,42.50
2019-04-21T16:12:58.142Z,42.30
2019-04-21T16:15:48.461Z,42.30
2019-04-21T16:18:38.372Z,42.90
2019-04-21T16:21:29.235Z,42.50
2019-04-21T16:24:18.496Z,42.50
2019-04-21T16:27:10.603Z,42.70
2019-04-21T16:29:59.614Z,43.50
2019-04-21T16:32:49.894Z,43.00
2019-04-21T16:35:39.957Z,42.70
2019-04-21T16:38:29.395Z,43.00
2019-04-21T16:41:18.590Z,43.20
2019-04-21T16:44:07.318Z,43.80
2019-04-21T16:46:56.708Z,43.40
2019-04-21T16:49:47.505Z,43.60
2019-04-21T16:52:40.910Z,43.40
2019-04-21T16:55:37.204Z,43.00
2019-04-21T16:58:29.100Z,42.70
2019-04-21T17:01:22.427Z,43.30
2019-04-21T17:04:12.828Z,43.90
2019-04-21T17:07:03.013Z,43.80
2019-04-21T17:09:52.744Z,43.80
2019-04-21T17:12:43.258Z,43.70
2019-04-21T17:15:47.323Z,44.50
2019-04-21T17:18:20.271Z,45.10
2019-04-21T17:20:59.170Z,46.30
2019-04-21T17:23:44.517Z,46.00
2019-04-21T17:26:37.204Z,46.40
2019-04-21T17:29:24.874Z,46.40
2019-04-21T17:32:14.614Z,46.30
2019-04-21T17:35:04.217Z,46.10
2019-04-21T17:37:54.292Z,46.30
2019-04-21T17:40:44.044Z,46.60
2019-04-21T17:43:33.932Z,47.10
2019-04-21T17:46:33.517Z,47.20
2019-04-21T17:49:14.892Z,47.10
2019-04-21T17:52:35.288Z,46.90
2019-04-21T17:55:13.991Z,47.10
2019-04-21T17:58:11.686Z,46.90
2019-04-21T18:04:06.342Z,47.20
2019-04-21T18:07:35.356Z,46.90
2019-04-21T18:10:22.012Z,47.30
2019-04-21T18:13:06.001Z,47.40
2019-04-21T18:16:02.886Z,47.70
2019-04-21T18:18:39.425Z,47.90
2019-04-21T18:21:40.187Z,48.10
2019-04-21T18:24:35.374Z,48.20
2019-04-21T18:27:17.920Z,48.00
2019-04-21T18:30:46.855Z,47.90
2019-04-21T18:33:42.040Z,48.60
2019-04-21T18:36:37.686Z,47.90
2019-04-21T18:39:49.499Z,47.80
2019-04-21T18:42:48.170Z,48.20
2019-04-21T18:46:14.897Z,48.10
2019-04-21T18:49:13.208Z,48.30
2019-04-21T18:52:32.171Z,48.40
2019-04-21T18:55:21.309Z,48.50
2019-04-21T18:58:03.443Z,49.00
2019-04-21T19:00:58.306Z,49.10
2019-04-21T19:03:33.338Z,49.10
2019-04-21T19:06:06.438Z,49.20
2019-04-21T19:09:08.790Z,49.10
2019-04-21T19:11:51.839Z,49.50
2019-04-21T19:14:45.301Z,49.50
2019-04-21T19:20:29.481Z,49.70
2019-04-21T19:23:21.635Z,50.10
2019-04-21T19:26:21.901Z,50.00
2019-04-21T19:29:01.219Z,50.10
2019-04-21T19:32:00.025Z,50.20
2019-04-21T19:34:32.317Z,50.10
2019-04-21T19:37:07.028Z,50.40
2019-04-21T19:40:01.525Z,50.40
2019-04-21T19:42:51.515Z,50.60
2019-04-21T19:45:44.928Z,50.80
2019-04-21T19:48:44.674Z,50.60
2019-04-21T19:51:28.996Z,50.80
2019-04-21T19:54:11.003Z,50.80
2019-04-21T19:56:53.362Z,51.10
2019-04-21T19:59:48.070Z,51.20
2019-04-21T20:02:34.416Z,51.40
2019-04-21T20:05:32.735Z,51.50
2019-04-21T20:08:31.987Z,51.60
2019-04-21T20:11:23.905Z,51.80
2019-04-21T20:14:37.664Z,52.00
2019-04-21T20:16:59.266Z,52.20
2019-04-21T20:19:36.550Z,52.30
2019-04-21T20:22:33.450Z,52.20
2019-04-21T20:25:19.976Z,52.10
2019-04-21T20:28:17.112Z,52.20
2019-04-21T20:31:18.850Z,52.10
2019-04-21T20:34:11.112Z,52.40
2019-04-21T20:36:59.674Z,52.00
2019-04-21T20:39:30.753Z,52.30
2019-04-21T20:42:28.034Z,52.10
2019-04-21T20:47:59.901Z,52.20
2019-04-21T20:51:06.432Z,52.20
2019-04-21T20:53:49.018Z,52.20
2019-04-21T20:56:45.212Z,52.20
2019-04-21T20:59:32.698Z,52.00
2019-04-21T21:02:29.913Z,52.20
2019-04-21T21:05:09.983Z,52.20
2019-04-21T21:08:13.680Z,52.40
2019-04-21T21:10:55.222Z,52.60
2019-04-21T21:13:55.413Z,52.90
2019-04-21T21:16:47.675Z,52.80
2019-04-21T21:19:37.790Z,52.90
2019-04-21T21:22:16.612Z,53.00
2019-04-21T21:25:18.740Z,53.40
2019-04-21T21:27:58.029Z,53.40
2019-04-21T21:30:52.852Z,53.30
2019-04-21T21:33:58.789Z,53.40
2019-04-21T21:36:36.639Z,53.70
2019-04-21T21:39:36.111Z,54.00
2019-04-21T21:42:03.461Z,54.40
2019-04-21T21:44:58.628Z,54.70
2019-04-21T21:48:07.234Z,54.60
2019-04-21T21:50:46.011Z,54.60
2019-04-21T21:53:25.488Z,54.80
2019-04-21T21:56:14.564Z,54.70
2019-04-21T21:59:10.546Z,54.80
2019-04-21T22:01:56.094Z,55.00
2019-04-21T22:04:50.977Z,55.10
2019-04-21T22:07:36.702Z,55.40
2019-04-21T22:10:25.559Z,55.70
2019-04-21T22:13:19.807Z,55.80
2019-04-21T22:16:10.421Z,55.80
2019-04-21T22:19:17.647Z,56.20
2019-04-21T22:22:07.738Z,56.30
2019-04-21T22:24:50.681Z,56.60
2019-04-21T22:27:27.553Z,57.00
2019-04-21T22:30:03.164Z,56.90
2019-04-21T22:32:55.706Z,57.00
2019-04-21T22:35:48.907Z,56.90
2019-04-21T22:38:43.265Z,57.10
2019-04-21T22:41:28.652Z,57.50
2019-04-21T22:44:16.530Z,58.10
2019-04-21T22:47:14.151Z,58.40
2019-04-21T22:49:56.982Z,58.50
2019-04-21T22:52:50.547Z,58.80
2019-04-21T22:55:37.377Z,58.90
2019-04-21T22:58:31.970Z,58.90
2019-04-21T23:01:25.219Z,58.90
2019-04-21T23:04:10.293Z,58.70
2019-04-21T23:07:05.106Z,58.50
2019-04-21T23:09:49.708Z,58.50
2019-04-21T23:12:42.069Z,58.60
2019-04-21T23:15:40.650Z,58.90
2019-04-21T23:18:36.257Z,59.60
2019-04-21T23:21:24.924Z,59.90
2019-04-21T23:24:26.534Z,59.50
2019-04-21T23:27:09.151Z,59.50
2019-04-21T23:29:52.447Z,59.80
2019-04-21T23:32:27.844Z,59.10
2019-04-21T23:35:16.949Z,59.00
2019-04-21T23:38:00.927Z,58.80
2019-04-21T23:40:50.500Z,58.90
2019-04-21T23:43:38.173Z,59.10
2019-04-21T23:46:29.848Z,59.60
2019-04-21T23:49:29.686Z,59.70
2019-04-21T23:52:10.939Z,60.00
2019-04-21T23:54:59.067Z,60.10
2019-04-21T23:57:50.100Z,60.20
